createdAt,value
2018-08-19T00:02:10.845Z,22.27
2018-08-19T00:04:40.067Z,22.43
2018-08-19T00:07:09.173Z,22.93
2018-08-19T00:09:38.125Z,25.80
2018-08-19T00:12:07.348Z,26.60
2018-08-19T00:14:37.060Z,27.27
2018-08-19T00:17:07.042Z,24.83
2018-08-19T00:19:36.399Z,24.80
2018-08-19T00:22:05.936Z,22.37
2018-08-19T00:24:35.288Z,23.63
2018-08-19T00:27:04.391Z,23.10
2018-08-19T00:29:37.479Z,24.10
2018-08-19T00:32:07.225Z,21.70
2018-08-19T00:34:36.532Z,21.40
2018-08-19T00:37:06.984Z,26.97
2018-08-19T00:39:36.020Z,26.17
2018-08-19T00:42:05.383Z,22.70
2018-08-19T00:44:34.725Z,23.90
2018-08-19T00:47:04.222Z,22.27
2018-08-19T00:49:33.948Z,22.50
2018-08-19T00:52:03.528Z,23.03
2018-08-19T00:54:33.011Z,25.83
2018-08-19T00:57:02.442Z,26.07
2018-08-19T00:59:32.760Z,25.87
2018-08-19T01:02:02.422Z,25.27
2018-08-19T01:04:31.854Z,25.07
2018-08-19T01:07:01.447Z,22.90
2018-08-19T01:09:31.780Z,22.87
2018-08-19T01:12:00.796Z,22.80
2018-08-19T01:14:29.984Z,22.40
2018-08-19T01:16:59.118Z,22.40
2018-08-19T01:19:28.472Z,21.27
2018-08-19T01:21:58.009Z,22.00
2018-08-19T01:24:27.220Z,21.63
2018-08-19T01:26:56.809Z,24.00
2018-08-19T01:29:37.450Z,23.73
2018-08-19T01:32:11.370Z,23.10
2018-08-19T01:34:43.747Z,24.47
2018-08-19T01:37:13.592Z,23.10
2018-08-19T01:39:42.811Z,21.83
2018-08-19T01:42:12.970Z,21.33
2018-08-19T01:44:43.044Z,20.93
2018-08-19T01:47:12.174Z,21.83
2018-08-19T01:49:41.216Z,21.57
2018-08-19T01:52:10.408Z,21.53
2018-08-19T01:54:39.665Z,21.13
2018-08-19T01:57:09.101Z,21.07
2018-08-19T01:59:38.340Z,20.63
2018-08-19T02:02:07.887Z,19.90
2018-08-19T02:04:45.277Z,20.23
2018-08-19T02:07:15.948Z,20.37
2018-08-19T02:09:58.674Z,18.97
2018-08-19T02:12:35.255Z,19.57
2018-08-19T02:15:04.788Z,19.73
2018-08-19T02:17:37.627Z,18.63
2018-08-19T02:20:07.138Z,19.23
2018-08-19T02:22:36.560Z,18.87
2018-08-19T02:25:05.759Z,18.47
2018-08-19T02:27:35.248Z,19.60
2018-08-19T02:30:04.377Z,18.37
2018-08-19T02:32:34.135Z,19.73
2018-08-19T02:35:03.359Z,19.27
2018-08-19T02:37:32.305Z,18.97
2018-08-19T02:40:03.011Z,19.30
2018-08-19T02:42:33.620Z,18.50
2018-08-19T02:45:05.401Z,20.07
2018-08-19T02:47:35.283Z,19.50
2018-08-19T02:50:04.835Z,18.73
2018-08-19T02:52:35.875Z,21.77
2018-08-19T02:55:06.292Z,19.57
2018-08-19T02:57:38.177Z,20.67
2018-08-19T03:00:07.960Z,18.70
2018-08-19T03:02:38.579Z,18.27
2018-08-19T03:05:09.947Z,18.03
2018-08-19T03:07:39.167Z,19.27
2018-08-19T03:10:15.872Z,17.50
2018-08-19T03:12:45.571Z,18.80
2018-08-19T03:15:16.003Z,18.00
2018-08-19T03:17:47.652Z,18.63
2018-08-19T03:20:16.840Z,18.10
2018-08-19T03:22:45.857Z,18.47
2018-08-19T03:25:15.340Z,19.73
2018-08-19T03:27:44.596Z,18.93
2018-08-19T03:30:15.641Z,20.90
2018-08-19T03:32:50.334Z,19.70
2018-08-19T03:35:21.070Z,19.37
2018-08-19T03:37:52.284Z,19.63
2018-08-19T03:40:21.214Z,22.80
2018-08-19T03:42:50.488Z,22.33
2018-08-19T03:45:20.957Z,22.37
2018-08-19T03:47:51.307Z,22.07
2018-08-19T03:50:25.705Z,22.30
2018-08-19T03:52:55.891Z,20.63
2018-08-19T03:55:28.861Z,19.70
2018-08-19T03:58:04.823Z,20.73
2018-08-19T04:00:35.978Z,22.33
2018-08-19T04:03:15.308Z,23.37
2018-08-19T04:05:49.624Z,21.97
2018-08-19T04:08:18.552Z,21.33
2018-08-19T04:10:48.460Z,21.63
2018-08-19T04:13:38.651Z,21.33
2018-08-19T04:16:08.946Z,22.90
2018-08-19T04:18:39.282Z,24.43
2018-08-19T04:21:10.419Z,25.67
2018-08-19T04:23:42.307Z,35.13
2018-08-19T04:26:11.608Z,43.93
2018-08-19T04:28:42.668Z,39.17
2018-08-19T04:31:17.194Z,44.57
2018-08-19T04:33:47.376Z,42.93
2018-08-19T04:36:17.975Z,26.20
2018-08-19T04:38:47.203Z,27.77
2018-08-19T04:41:16.648Z,27.40
2018-08-19T04:43:46.671Z,28.53
2018-08-19T04:46:16.083Z,28.13
2018-08-19T04:48:46.880Z,29.00
2018-08-19T04:51:16.300Z,27.37
2018-08-19T04:53:45.450Z,26.27
2018-08-19T04:56:14.561Z,26.73
2018-08-19T04:58:43.860Z,27.07
2018-08-19T05:01:13.756Z,29.43
2018-08-19T05:03:44.579Z,27.17
2018-08-19T05:06:14.674Z,26.37
2018-08-19T05:08:43.731Z,27.90
2018-08-19T05:11:12.955Z,27.57
2018-08-19T05:13:42.052Z,25.10
2018-08-19T05:16:11.304Z,27.13
2018-08-19T05:18:41.159Z,25.60
2018-08-19T05:21:14.405Z,25.03
2018-08-19T05:23:43.564Z,23.80
2018-08-19T05:26:13.562Z,23.47
2018-08-19T05:28:45.553Z,23.93
2018-08-19T05:31:14.877Z,23.47
2018-08-19T05:33:44.234Z,24.50
2018-08-19T05:36:13.674Z,23.67
2018-08-19T05:38:44.572Z,23.33
2018-08-19T05:41:13.952Z,23.67
2018-08-19T05:43:43.290Z,20.27
2018-08-19T05:46:12.534Z,20.30
2018-08-19T05:48:41.851Z,22.17
2018-08-19T05:51:11.170Z,22.57
2018-08-19T05:53:44.674Z,22.10
2018-08-19T05:56:14.112Z,22.23
2018-08-19T05:58:43.317Z,20.87
2018-08-19T06:01:16.641Z,20.17
2018-08-19T06:03:46.552Z,20.90
2018-08-19T06:06:16.098Z,20.20
2018-08-19T06:08:45.814Z,20.07
2018-08-19T06:11:15.345Z,20.70
2018-08-19T06:13:44.889Z,19.70
2018-08-19T06:16:14.229Z,19.93
2018-08-19T06:18:43.553Z,20.57
2018-08-19T06:21:12.814Z,21.33
2018-08-19T06:23:42.100Z,20.03
2018-08-19T06:26:11.417Z,19.47
2018-08-19T06:28:40.965Z,20.27
2018-08-19T06:31:10.320Z,18.60
2018-08-19T06:33:39.352Z,18.47
2018-08-19T06:36:08.953Z,18.87
2018-08-19T06:38:38.248Z,17.80
2018-08-19T06:41:07.522Z,18.50
2018-08-19T06:43:37.072Z,17.10
2018-08-19T06:46:06.489Z,16.93
2018-08-19T06:48:35.951Z,16.00
2018-08-19T06:51:05.797Z,16.80
2018-08-19T06:53:34.972Z,17.00
2018-08-19T06:56:04.239Z,15.27
2018-08-19T06:58:33.498Z,14.40
2018-08-19T07:01:02.507Z,13.37
2018-08-19T07:03:32.310Z,13.67
2018-08-19T07:06:07.206Z,13.77
2018-08-19T07:08:36.365Z,14.20
2018-08-19T07:11:05.981Z,13.43
2018-08-19T07:13:35.450Z,12.33
2018-08-19T07:16:04.773Z,12.13
2018-08-19T07:18:35.041Z,12.75
2018-08-19T07:21:04.301Z,11.80
2018-08-19T07:23:33.602Z,12.03
2018-08-19T07:26:02.976Z,11.68
2018-08-19T07:28:32.305Z,12.18
2018-08-19T07:31:01.439Z,11.22
2018-08-19T07:33:30.729Z,11.38
2018-08-19T07:35:59.812Z,10.78
2018-08-19T07:38:29.475Z,10.48
2018-08-19T07:40:58.830Z,10.80
2018-08-19T07:43:28.461Z,11.50
2018-08-19T07:45:57.580Z,11.30
2018-08-19T07:48:27.074Z,12.07
2018-08-19T07:50:56.582Z,11.85
2018-08-19T07:53:25.696Z,11.33
2018-08-19T07:55:55.202Z,11.43
2018-08-19T07:58:35.437Z,11.08
2018-08-19T08:01:04.517Z,11.05
2018-08-19T08:03:33.967Z,11.63
2018-08-19T08:06:03.561Z,11.40
2018-08-19T08:08:32.885Z,11.10
2018-08-19T08:11:02.303Z,10.55
2018-08-19T08:13:31.584Z,9.75
2018-08-19T08:16:01.741Z,9.90
2018-08-19T08:18:30.950Z,9.33
2018-08-19T08:21:04.445Z,9.93
2018-08-19T08:23:33.620Z,10.93
2018-08-19T08:26:02.702Z,12.55
2018-08-19T08:28:32.485Z,10.78
2018-08-19T08:31:02.043Z,9.78
2018-08-19T08:33:31.303Z,9.50
2018-08-19T08:36:01.017Z,8.60
2018-08-19T08:38:30.578Z,7.92
2018-08-19T08:41:00.253Z,8.28
2018-08-19T08:43:29.684Z,8.33
2018-08-19T08:45:58.926Z,8.40
2018-08-19T08:48:28.684Z,9.53
2018-08-19T08:50:58.021Z,7.60
2018-08-19T08:53:36.684Z,7.65
2018-08-19T08:56:06.920Z,7.70
2018-08-19T08:58:36.125Z,6.37
2018-08-19T09:01:05.235Z,6.28
2018-08-19T09:03:34.761Z,6.33
2018-08-19T09:06:04.549Z,9.15
2018-08-19T09:08:34.030Z,7.05
2018-08-19T09:11:05.137Z,6.92
2018-08-19T09:13:34.200Z,6.90
2018-08-19T09:16:03.428Z,6.47
2018-08-19T09:18:32.624Z,6.20
2018-08-19T09:21:02.120Z,6.42
2018-08-19T09:23:31.542Z,7.20
2018-08-19T09:26:00.871Z,6.35
2018-08-19T09:28:30.128Z,5.75
2018-08-19T09:30:59.435Z,6.10
2018-08-19T09:33:28.615Z,6.25
2018-08-19T09:35:57.825Z,6.60
2018-08-19T09:38:27.060Z,7.28
2018-08-19T09:40:56.477Z,8.75
2018-08-19T09:43:25.712Z,7.20
2018-08-19T09:45:55.001Z,6.72
2018-08-19T09:48:24.959Z,8.80
2018-08-19T09:50:57.342Z,7.70
2018-08-19T09:53:26.706Z,7.10
2018-08-19T09:56:01.476Z,7.05
2018-08-19T09:58:30.924Z,7.47
2018-08-19T10:01:05.523Z,6.17
2018-08-19T10:03:34.890Z,6.58
2018-08-19T10:06:04.338Z,6.62
2018-08-19T10:08:33.728Z,6.12
2018-08-19T10:11:02.899Z,6.10
2018-08-19T10:13:32.596Z,6.80
2018-08-19T10:16:02.097Z,6.08
2018-08-19T10:18:32.307Z,6.53
2018-08-19T10:21:05.993Z,6.45
2018-08-19T10:23:35.571Z,5.62
2018-08-19T10:26:05.090Z,6.45
2018-08-19T10:28:34.454Z,6.47
2018-08-19T10:31:06.638Z,6.20
2018-08-19T10:33:37.158Z,6.10
2018-08-19T10:36:07.235Z,5.30
2018-08-19T10:38:36.715Z,5.62
2018-08-19T10:41:06.261Z,5.03
2018-08-19T10:43:35.883Z,5.72
2018-08-19T10:46:05.298Z,5.50
2018-08-19T10:48:35.552Z,5.47
2018-08-19T10:51:04.946Z,5.22
2018-08-19T10:53:34.030Z,5.10
2018-08-19T10:56:04.990Z,6.10
2018-08-19T10:58:34.444Z,5.53
2018-08-19T11:01:03.608Z,5.10
2018-08-19T11:03:33.046Z,5.17
2018-08-19T11:06:02.189Z,5.20
2018-08-19T11:08:32.198Z,4.37
2018-08-19T11:11:01.616Z,5.28
2018-08-19T11:13:32.820Z,5.30
2018-08-19T11:16:03.253Z,4.70
2018-08-19T11:18:38.484Z,4.78
2018-08-19T11:21:10.452Z,4.83
2018-08-19T11:23:42.257Z,4.78
2018-08-19T11:26:11.698Z,4.95
2018-08-19T11:28:53.201Z,4.80
2018-08-19T11:31:27.733Z,5.40
2018-08-19T11:33:58.963Z,5.10
2018-08-19T11:36:34.405Z,5.05
2018-08-19T11:39:04.932Z,5.58
2018-08-19T11:41:34.655Z,5.30
2018-08-19T11:44:06.966Z,5.20
2018-08-19T11:46:36.124Z,5.50
2018-08-19T11:49:10.270Z,5.20
2018-08-19T11:52:00.840Z,4.72
2018-08-19T11:54:31.106Z,4.33
2018-08-19T11:57:07.646Z,4.53
2018-08-19T11:59:38.823Z,5.08
2018-08-19T12:02:10.902Z,4.97
2018-08-19T12:04:40.895Z,5.10
2018-08-19T12:07:10.324Z,4.70
2018-08-19T12:09:43.611Z,5.35
2018-08-19T12:12:13.893Z,5.10
2018-08-19T12:14:43.923Z,6.08
2018-08-19T12:17:13.366Z,5.55
2018-08-19T12:19:43.868Z,5.28
2018-08-19T12:22:13.043Z,5.40
2018-08-19T12:24:47.224Z,4.95
2018-08-19T12:27:17.704Z,4.97
2018-08-19T12:29:47.875Z,5.53
2018-08-19T12:35:02.505Z,5.17
2018-08-19T12:37:33.004Z,5.55
2018-08-19T12:40:02.451Z,5.17
2018-08-19T12:42:33.299Z,5.22
2018-08-19T12:45:07.602Z,5.15
2018-08-19T12:47:37.315Z,5.10
2018-08-19T12:50:12.025Z,5.20
2018-08-19T12:52:41.052Z,5.45
2018-08-19T12:55:11.769Z,5.35
2018-08-19T12:57:42.074Z,5.30
2018-08-19T13:00:16.985Z,5.47
2018-08-19T13:02:47.825Z,5.42
2018-08-19T13:05:17.767Z,5.50
2018-08-19T13:07:47.029Z,5.45
2018-08-19T13:10:16.688Z,5.30
2018-08-19T13:13:03.235Z,5.28
2018-08-19T13:15:32.538Z,5.50
2018-08-19T13:18:01.583Z,5.20
2018-08-19T13:20:30.791Z,5.03
2018-08-19T13:23:01.314Z,5.53
2018-08-19T13:25:31.086Z,4.92
2018-08-19T13:28:00.209Z,5.50
2018-08-19T13:30:29.536Z,5.22
2018-08-19T13:32:59.452Z,4.83
2018-08-19T13:35:28.895Z,5.20
2018-08-19T13:37:58.108Z,5.10
2018-08-19T13:40:27.592Z,5.70
2018-08-19T13:42:56.839Z,5.72
2018-08-19T13:45:27.442Z,5.47
2018-08-19T13:47:56.785Z,5.45
2018-08-19T13:50:26.116Z,5.35
2018-08-19T13:52:55.415Z,6.35
2018-08-19T13:55:24.677Z,5.45
2018-08-19T13:57:53.881Z,5.25
2018-08-19T14:00:24.093Z,4.85
2018-08-19T14:02:53.662Z,4.75
2018-08-19T14:05:23.439Z,4.97
2018-08-19T14:07:52.657Z,4.85
2018-08-19T14:10:21.868Z,5.17
2018-08-19T14:12:51.022Z,5.55
2018-08-19T14:15:20.468Z,6.00
2018-08-19T14:17:49.746Z,5.85
2018-08-19T14:20:18.942Z,6.08
2018-08-19T14:22:48.312Z,6.03
2018-08-19T14:25:17.796Z,6.30
2018-08-19T14:27:46.829Z,6.00
2018-08-19T14:30:16.480Z,6.10
2018-08-19T14:32:47.152Z,6.28
2018-08-19T14:35:16.902Z,4.80
2018-08-19T14:37:46.115Z,5.10
2018-08-19T14:40:17.520Z,5.70
2018-08-19T14:42:46.661Z,5.30
2018-08-19T14:45:15.814Z,6.03
2018-08-19T14:47:44.984Z,6.20
2018-08-19T14:50:15.769Z,6.22
2018-08-19T14:52:56.327Z,6.05
2018-08-19T14:55:26.007Z,6.08
2018-08-19T14:57:57.804Z,6.50
2018-08-19T15:00:27.200Z,5.42
2018-08-19T15:02:56.453Z,5.72
2018-08-19T15:05:26.582Z,6.05
2018-08-19T15:07:56.653Z,5.40
2018-08-19T15:10:26.547Z,5.70
2018-08-19T15:12:56.212Z,5.60
2018-08-19T15:15:26.794Z,5.78
2018-08-19T15:18:00.958Z,5.55
2018-08-19T15:20:33.661Z,5.35
2018-08-19T15:23:20.396Z,5.40
2018-08-19T15:25:50.223Z,5.83
2018-08-19T15:28:19.932Z,5.33
2018-08-19T15:30:49.449Z,5.80
2018-08-19T15:33:18.987Z,5.67
2018-08-19T15:35:48.244Z,5.62
2018-08-19T15:38:17.730Z,5.50
2018-08-19T15:40:48.660Z,6.17
2018-08-19T15:43:25.773Z,5.92
2018-08-19T15:46:04.480Z,6.20
2018-08-19T15:48:33.944Z,6.20
2018-08-19T15:51:09.885Z,6.03
2018-08-19T15:53:39.072Z,5.30
2018-08-19T15:56:08.468Z,6.08
2018-08-19T15:58:42.824Z,6.60
2018-08-19T16:01:29.763Z,6.17
2018-08-19T16:04:04.724Z,6.08
2018-08-19T16:06:33.927Z,6.78
2018-08-19T16:09:03.259Z,6.30
2018-08-19T16:11:32.491Z,6.10
2018-08-19T16:14:02.680Z,6.55
2018-08-19T16:16:31.816Z,6.40
2018-08-19T16:19:02.930Z,7.10
2018-08-19T16:21:32.530Z,6.33
2018-08-19T16:24:03.138Z,7.17
2018-08-19T16:26:32.705Z,7.03
2018-08-19T16:29:02.001Z,6.92
2018-08-19T16:31:31.492Z,7.15
2018-08-19T16:34:01.198Z,7.53
2018-08-19T16:36:30.420Z,7.92
2018-08-19T16:38:59.727Z,7.85
2018-08-19T16:41:29.509Z,8.03
2018-08-19T16:43:59.542Z,7.92
2018-08-19T16:46:29.689Z,9.58
2018-08-19T16:49:00.280Z,9.25
2018-08-19T16:51:29.399Z,8.93
2018-08-19T16:53:58.610Z,10.23
2018-08-19T16:56:28.777Z,10.23
2018-08-19T16:58:57.975Z,10.28
2018-08-19T17:01:27.432Z,10.55
2018-08-19T17:03:56.773Z,9.98
2018-08-19T17:06:27.185Z,11.35
2018-08-19T17:08:57.105Z,10.28
2018-08-19T17:11:26.460Z,9.60
2018-08-19T17:13:55.729Z,9.70
2018-08-19T17:16:25.759Z,9.33
2018-08-19T17:18:55.103Z,10.20
2018-08-19T17:21:25.120Z,10.32
2018-08-19T17:23:55.252Z,11.25
2018-08-19T17:26:25.323Z,11.55
2018-08-19T17:28:54.779Z,11.45
2018-08-19T17:31:23.915Z,11.48
2018-08-19T17:33:54.716Z,11.43
2018-08-19T17:36:33.440Z,10.68
2018-08-19T17:39:04.148Z,10.88
2018-08-19T17:41:33.538Z,11.25
2018-08-19T17:44:05.005Z,12.40
2018-08-19T17:46:34.398Z,12.30
2018-08-19T17:49:03.638Z,14.33
2018-08-19T17:51:34.145Z,14.73
2018-08-19T17:54:08.159Z,14.50
2018-08-19T17:56:37.539Z,14.58
2018-08-19T17:59:06.721Z,15.48
2018-08-19T18:01:41.034Z,13.88
2018-08-19T18:04:10.285Z,13.30
2018-08-19T18:06:40.095Z,23.05
2018-08-19T18:11:41.148Z,18.55
2018-08-19T18:14:15.434Z,15.15
2018-08-19T18:16:47.182Z,14.33
2018-08-19T18:19:25.263Z,14.63
2018-08-19T18:21:55.702Z,14.35
2018-08-19T18:24:26.172Z,15.03
2018-08-19T18:26:56.268Z,16.15
2018-08-19T18:29:36.080Z,14.95
2018-08-19T18:32:13.175Z,24.95
2018-08-19T18:34:42.591Z,28.67
2018-08-19T18:37:12.086Z,24.75
2018-08-19T18:39:44.586Z,25.60
2018-08-19T18:42:22.784Z,24.37
2018-08-19T18:44:52.396Z,20.97
2018-08-19T18:47:21.772Z,21.52
2018-08-19T18:49:50.969Z,20.27
2018-08-19T18:52:20.345Z,19.73
2018-08-19T18:54:49.760Z,16.37
2018-08-19T18:57:18.926Z,15.78
2018-08-19T18:59:48.172Z,14.60
2018-08-19T19:02:17.634Z,13.77
2018-08-19T19:04:47.130Z,14.60
2018-08-19T19:07:16.700Z,14.87
2018-08-19T19:09:49.249Z,14.83
2018-08-19T19:12:21.159Z,14.43
2018-08-19T19:14:50.934Z,15.17
2018-08-19T19:17:20.350Z,16.17
2018-08-19T19:19:50.549Z,16.10
2018-08-19T19:22:20.066Z,15.53
2018-08-19T19:24:52.134Z,16.97
2018-08-19T19:27:22.183Z,15.03
2018-08-19T19:29:56.797Z,15.10
2018-08-19T19:32:26.276Z,15.43
2018-08-19T19:34:56.289Z,15.57
2018-08-19T19:37:26.385Z,14.20
2018-08-19T19:40:05.994Z,14.10
2018-08-19T19:42:36.673Z,13.77
2018-08-19T19:45:07.407Z,13.90
2018-08-19T19:47:36.882Z,14.13
2018-08-19T19:50:07.861Z,15.57
2018-08-19T19:52:39.000Z,14.30
2018-08-19T19:55:08.708Z,14.13
2018-08-19T19:57:38.606Z,14.27
2018-08-19T20:00:08.258Z,14.30
2018-08-19T20:02:37.813Z,13.97
2018-08-19T20:05:12.406Z,13.63
2018-08-19T20:07:43.223Z,15.67
2018-08-19T20:10:17.171Z,13.83
2018-08-19T20:12:46.804Z,15.83
2018-08-19T20:15:16.188Z,14.50
2018-08-19T20:17:45.763Z,14.27
2018-08-19T20:20:15.611Z,14.60
2018-08-19T20:22:44.975Z,15.50
2018-08-19T20:25:14.368Z,16.10
2018-08-19T20:27:43.838Z,15.47
2018-08-19T20:30:13.823Z,15.00
2018-08-19T20:32:43.562Z,14.93
2018-08-19T20:35:12.765Z,15.13
2018-08-19T20:37:41.945Z,16.27
2018-08-19T20:40:11.711Z,17.50
2018-08-19T20:42:47.123Z,17.70
2018-08-19T20:45:16.325Z,16.00
2018-08-19T20:47:47.396Z,17.47
2018-08-19T20:50:20.049Z,17.83
2018-08-19T20:58:16.924Z,17.00
2018-08-19T21:00:49.105Z,18.03
2018-08-19T21:03:20.788Z,17.73
2018-08-19T21:05:51.740Z,17.40
2018-08-19T21:08:21.587Z,17.50
2018-08-19T21:10:51.040Z,16.43
2018-08-19T21:13:22.334Z,16.33
2018-08-19T21:15:53.994Z,16.70
2018-08-19T21:18:23.451Z,17.83
2018-08-19T21:20:53.192Z,17.50
2018-08-19T21:23:22.973Z,18.43
2018-08-19T21:25:57.342Z,17.43
2018-08-19T21:28:26.764Z,17.10
2018-08-19T21:30:56.100Z,18.47
2018-08-19T21:33:25.353Z,17.30
2018-08-19T21:35:55.926Z,18.70
2018-08-19T21:38:25.258Z,19.43
2018-08-19T21:40:55.947Z,19.70
2018-08-19T21:43:28.055Z,18.53
2018-08-19T21:45:57.133Z,18.17
2018-08-19T21:48:26.398Z,17.77
2018-08-19T21:50:56.140Z,16.70
2018-08-19T21:53:25.220Z,16.30
2018-08-19T21:55:54.423Z,17.23
2018-08-19T21:58:23.733Z,16.63
2018-08-19T22:01:00.508Z,18.47
2018-08-19T22:03:34.915Z,15.87
2018-08-19T22:06:06.243Z,17.70
2018-08-19T22:08:35.526Z,16.80
2018-08-19T22:11:05.025Z,16.63
2018-08-19T22:13:34.279Z,15.77
2018-08-19T22:16:03.583Z,16.50
2018-08-19T22:18:32.816Z,16.90
2018-08-19T22:21:11.407Z,15.57
2018-08-19T22:23:42.657Z,16.70
2018-08-19T22:26:13.198Z,15.97
2018-08-19T22:28:42.733Z,16.60
2018-08-19T22:31:23.635Z,15.97
2018-08-19T22:33:56.027Z,16.70
2018-08-19T22:36:25.196Z,15.10
2018-08-19T22:38:55.370Z,14.27
2018-08-19T22:41:26.122Z,14.87
2018-08-19T22:43:56.014Z,16.10
2018-08-19T22:46:25.813Z,19.00
2018-08-19T22:48:55.529Z,18.60
2018-08-19T22:51:25.014Z,16.70
2018-08-19T22:53:55.386Z,17.20
2018-08-19T22:56:24.740Z,17.17
2018-08-19T22:58:54.649Z,17.10
2018-08-19T23:01:27.140Z,16.60
2018-08-19T23:04:02.286Z,15.53
2018-08-19T23:06:32.130Z,15.63
2018-08-19T23:09:01.820Z,16.33
2018-08-19T23:11:36.716Z,17.03
2018-08-19T23:14:17.108Z,16.20
2018-08-19T23:16:46.401Z,16.67
2018-08-19T23:19:15.595Z,16.17
2018-08-19T23:21:44.751Z,15.97
2018-08-19T23:24:14.301Z,15.67
2018-08-19T23:26:43.515Z,15.97
2018-08-19T23:29:12.656Z,15.87
2018-08-19T23:31:41.932Z,15.07
2018-08-19T23:34:11.059Z,14.67
2018-08-19T23:36:40.871Z,15.03
2018-08-19T23:39:10.631Z,15.87
2018-08-19T23:41:39.906Z,15.03
2018-08-19T23:44:09.563Z,14.67
2018-08-19T23:46:39.650Z,14.77
2018-08-19T23:49:08.686Z,14.60
2018-08-19T23:51:37.727Z,15.30
2018-08-19T23:54:06.808Z,14.97
2018-08-19T23:56:35.966Z,15.63
2018-08-19T23:59:05.055Z,15.43
